Time,TemperatureF,DewpointF,PressureIn,WindDirection,WindDirectionDegrees,WindSpeedMPH,WindSpeedGustMPH,Humidity,HourlyPrecipIn,Conditions,Clouds,dailyrainin,SoftwareType,DateUTC
2013-07-14 00:05:00,75.3,75.3,29.92,SE,126,0.0,0.0,100,0.00,,,0.00,Wunderground v.1.15,2013-07-14 04:05:00,
2013-07-14 00:10:00,76.1,76.1,29.92,SE,145,2.0,7.0,100,0.00,,,0.00,Wunderground v.1.15,2013-07-14 04:10:00,
2013-07-14 00:15:00,76.8,76.8,29.94,SE,130,5.0,13.0,100,0.00,,,0.00,Wunderground v.1.15,2013-07-14 04:15:00,
2013-07-14 00:20:00,76.8,76.8,29.94,SE,134,8.0,8.0,100,0.00,,,0.00,Wunderground v.1.15,2013-07-14 04:20:00,
2013-07-14 00:25:00,76.1,76.1,29.94,South,174,9.0,11.0,100,0.00,,,0.00,Wunderground v.1.15,2013-07-14 04:25:00,
2013-07-14 00:35:00,76.1,76.1,29.95,SSE,147,6.0,8.0,100,0.00,,,0.00,Wunderground v.1.15,2013-07-14 04:35:00,
2013-07-14 00:45:00,76.3,76.3,29.94,SE,134,6.0,9.0,100,0.00,,,0.00,Wunderground v.1.15,2013-07-14 04:45:00,
2013-07-14 00:55:00,76.3,76.3,29.94,SE,143,9.0,16.0,100,0.00,,,0.00,Wunderground v.1.15,2013-07-14 04:55:00,
2013-07-14 01:00:00,76.3,76.3,29.95,ESE,113,9.0,9.0,100,0.00,,,0.00,Wunderground v.1.15,2013-07-14 05:00:00,
2013-07-14 01:10:00,75.6,75.6,29.95,ESE,123,10.0,13.0,100,0.00,,,0.01,Wunderground v.1.15,2013-07-14 05:10:00,
2013-07-14 01:20:00,75.6,75.6,29.94,SSE,147,7.0,7.0,100,0.00,,,0.01,Wunderground v.1.15,2013-07-14 05:20:00,
2013-07-14 01:25:00,75.6,75.6,29.94,SSE,161,6.0,7.0,100,0.00,,,0.01,Wunderground v.1.15,2013-07-14 05:25:00,
2013-07-14 01:35:00,76.3,76.3,29.93,SSE,148,8.0,8.0,100,0.09,,,0.03,Wunderground v.1.15,2013-07-14 05:35:00,
2013-07-14 01:45:00,76.5,76.5,29.92,SE,124,8.0,10.0,100,0.06,,,0.04,Wunderground v.1.15,2013-07-14 05:45:00,
2013-07-14 01:50:00,76.5,76.5,29.92,SE,137,8.0,8.0,100,0.06,,,0.04,Wunderground v.1.15,2013-07-14 05:50:00,
2013-07-14 02:00:00,76.3,76.3,29.92,SSE,157,8.0,8.0,100,0.05,,,0.05,Wunderground v.1.15,2013-07-14 06:00:00,
2013-07-14 02:10:00,76.5,76.5,29.92,SE,127,7.0,11.0,100,0.05,,,0.06,Wunderground v.1.15,2013-07-14 06:10:00,
2013-07-14 02:25:00,76.3,76.3,29.92,SE,144,9.0,10.0,100,0.07,,,0.07,Wunderground v.1.15,2013-07-14 06:25:00,
2013-07-14 02:35:00,76.0,76.0,29.91,SE,136,11.0,15.0,100,0.04,,,0.08,Wunderground v.1.15,2013-07-14 06:35:00,
2013-07-14 02:45:00,76.3,76.3,29.91,ESE,123,12.0,12.0,100,0.05,,,0.09,Wunderground v.1.15,2013-07-14 06:45:00,
2013-07-14 02:55:00,76.5,76.5,29.91,SE,127,11.0,12.0,100,0.05,,,0.09,Wunderground v.1.15,2013-07-14 06:55:00,
2013-07-14 03:00:00,76.7,76.7,29.91,SE,141,10.0,16.0,100,0.04,,,0.09,Wunderground v.1.15,2013-07-14 07:00:00,
2013-07-14 03:10:00,76.7,76.7,29.91,SE,127,8.0,8.0,100,0.00,,,0.10,Wunderground v.1.15,2013-07-14 07:10:00,
2013-07-14 03:20:00,76.8,76.8,29.91,SE,128,8.0,8.0,100,0.04,,,0.11,Wunderground v.1.15,2013-07-14 07:20:00,
2013-07-14 03:25:00,76.8,76.8,29.91,South,174,7.0,8.0,100,0.04,,,0.11,Wunderground v.1.15,2013-07-14 07:25:00,
2013-07-14 03:35:00,77.0,77.0,29.90,ESE,119,7.0,8.0,100,0.04,,,0.12,Wunderground v.1.15,2013-07-14 07:35:00,
2013-07-14 03:40:00,77.2,77.2,29.90,SE,143,7.0,7.0,100,0.04,,,0.12,Wunderground v.1.15,2013-07-14 07:40:00,
2013-07-14 03:50:00,77.6,77.6,29.90,SE,140,4.0,4.0,100,0.00,,,0.12,Wunderground v.1.15,2013-07-14 07:50:00,
2013-07-14 04:00:00,77.6,77.6,29.90,SE,137,6.0,6.0,100,0.00,,,0.12,Wunderground v.1.15,2013-07-14 08:00:00,
2013-07-14 04:05:00,77.9,77.9,29.90,SE,127,6.0,9.0,100,0.00,,,0.12,Wunderground v.1.15,2013-07-14 08:05:00,
2013-07-14 04:15:00,78.3,78.3,29.90,ESE,112,6.0,8.0,100,0.00,,,0.12,Wunderground v.1.15,2013-07-14 08:15:00,
2013-07-14 04:20:00,78.3,78.3,29.90,SE,124,6.0,6.0,100,0.00,,,0.12,Wunderground v.1.15,2013-07-14 08:20:00,
2013-07-14 04:30:00,78.5,78.5,29.90,SE,137,6.0,6.0,100,0.00,,,0.12,Wunderground v.1.15,2013-07-14 08:30:00,
2013-07-14 04:40:00,78.6,78.6,29.90,ESE,121,4.0,8.0,100,0.00,,,0.12,Wunderground v.1.15,2013-07-14 08:40:00,
2013-07-14 04:45:00,78.6,78.6,29.90,SE,131,5.0,8.0,100,0.00,,,0.12,Wunderground v.1.15,2013-07-14 08:45:00,
2013-07-14 04:55:00,78.8,78.8,29.90,ESE,106,9.0,13.0,100,0.00,,,0.12,Wunderground v.1.15,2013-07-14 08:55:00,
2013-07-14 05:00:00,78.6,78.6,29.89,ESE,113,10.0,10.0,100,0.00,,,0.12,Wunderground v.1.15,2013-07-14 09:00:00,
2013-07-14 05:10:00,79.2,79.2,29.89,ESE,109,6.0,12.0,100,0.00,,,0.12,Wunderground v.1.15,2013-07-14 09:10:00,
2013-07-14 05:15:00,79.2,79.2,29.88,SE,140,7.0,12.0,100,0.00,,,0.12,Wunderground v.1.15,2013-07-14 09:15:00,
2013-07-14 05:25:00,79.4,79.4,29.88,ESE,116,8.0,16.0,100,0.00,,,0.12,Wunderground v.1.15,2013-07-14 09:25:00,
2013-07-14 05:30:00,79.6,79.6,29.88,ESE,107,8.0,11.0,100,0.00,,,0.12,Wunderground v.1.15,2013-07-14 09:30:00,
2013-07-14 05:40:00,79.8,79.8,29.88,ESE,116,7.0,14.0,100,0.00,,,0.12,Wunderground v.1.15,2013-07-14 09:40:00,
2013-07-14 05:50:00,79.8,79.8,29.88,SE,143,8.0,13.0,100,0.00,,,0.12,Wunderground v.1.15,2013-07-14 09:50:00,
2013-07-14 05:55:00,79.8,79.8,29.88,ESE,114,8.0,13.0,100,0.00,,,0.12,Wunderground v.1.15,2013-07-14 09:55:00,
2013-07-14 06:05:00,79.6,79.6,29.88,East,83,8.0,9.0,100,0.00,,,0.12,Wunderground v.1.15,2013-07-14 10:05:00,
2013-07-14 06:15:00,79.9,79.9,29.89,ESE,113,7.0,13.0,100,0.00,,,0.12,Wunderground v.1.15,2013-07-14 10:15:00,
2013-07-14 06:25:00,79.9,79.9,29.89,ESE,112,7.0,7.0,100,0.00,,,0.12,Wunderground v.1.15,2013-07-14 10:25:00,
2013-07-14 06:35:00,80.1,80.1,29.89,SE,130,7.0,8.0,100,0.00,,,0.12,Wunderground v.1.15,2013-07-14 10:35:00,
2013-07-14 06:40:00,79.9,79.9,29.89,SE,126,7.0,8.0,100,0.00,,,0.12,Wunderground v.1.15,2013-07-14 10:40:00,
2013-07-14 06:50:00,79.8,79.8,29.90,ESE,113,7.0,7.0,100,0.00,,,0.12,Wunderground v.1.15,2013-07-14 10:50:00,
2013-07-14 07:00:00,79.8,79.8,29.90,East,95,7.0,7.0,100,0.00,,,0.12,Wunderground v.1.15,2013-07-14 11:00:00,
2013-07-14 07:05:00,79.6,79.6,29.90,ESE,117,6.0,7.0,100,0.00,,,0.12,Wunderground v.1.15,2013-07-14 11:05:00,
2013-07-14 07:15:00,79.9,79.9,29.90,East,95,4.0,6.0,100,0.00,,,0.12,Wunderground v.1.15,2013-07-14 11:15:00,
2013-07-14 07:25:00,79.9,79.9,29.90,ESE,102,5.0,5.0,100,0.00,,,0.12,Wunderground v.1.15,2013-07-14 11:25:00,
2013-07-14 07:30:00,80.1,80.1,29.91,SE,127,6.0,6.0,100,0.00,,,0.12,Wunderground v.1.15,2013-07-14 11:30:00,
2013-07-14 07:40:00,79.9,79.9,29.91,ESE,121,5.0,5.0,100,0.00,,,0.12,Wunderground v.1.15,2013-07-14 11:40:00,
2013-07-14 07:45:00,79.9,79.9,29.91,ESE,107,5.0,6.0,100,0.00,,,0.12,Wunderground v.1.15,2013-07-14 11:45:00,
2013-07-14 07:55:00,80.1,80.1,29.91,ESE,120,6.0,7.0,100,0.00,,,0.12,Wunderground v.1.15,2013-07-14 11:55:00,
2013-07-14 08:00:00,80.3,80.3,29.92,East,85,4.0,4.0,100,0.00,,,0.12,Wunderground v.1.15,2013-07-14 12:00:00,
2013-07-14 08:10:00,80.5,80.5,29.92,SE,126,3.0,7.0,100,0.00,,,0.12,Wunderground v.1.15,2013-07-14 12:10:00,
2013-07-14 08:15:00,80.7,80.7,29.93,East,99,3.0,7.0,100,0.00,,,0.12,Wunderground v.1.15,2013-07-14 12:15:00,
2013-07-14 08:25:00,80.9,80.9,29.93,ESE,109,3.0,3.0,100,0.00,,,0.12,Wunderground v.1.15,2013-07-14 12:25:00,
2013-07-14 08:30:00,81.2,81.2,29.93,SE,136,4.0,4.0,100,0.00,,,0.12,Wunderground v.1.15,2013-07-14 12:30:00,
2013-07-14 08:40:00,81.8,81.8,29.93,East,95,4.0,5.0,100,0.00,,,0.12,Wunderground v.1.15,2013-07-14 12:40:00,
2013-07-14 08:50:00,82.2,82.2,29.93,ESE,116,5.0,5.0,100,0.00,,,0.12,Wunderground v.1.15,2013-07-14 12:50:00,
2013-07-14 09:00:00,82.2,82.2,29.94,East,92,5.0,5.0,100,0.00,,,0.12,Wunderground v.1.15,2013-07-14 13:00:00,
2013-07-14 09:05:00,82.4,82.4,29.94,ESE,104,4.0,5.0,100,0.00,,,0.12,Wunderground v.1.15,2013-07-14 13:05:00,
2013-07-14 09:15:00,82.6,82.6,29.94,ESE,114,2.0,5.0,100,0.00,,,0.12,Wunderground v.1.15,2013-07-14 13:15:00,
2013-07-14 09:20:00,82.6,82.6,29.94,ESE,121,2.0,5.0,100,0.00,,,0.12,Wunderground v.1.15,2013-07-14 13:20:00,
2013-07-14 09:30:00,82.6,82.6,29.95,SE,131,4.0,7.0,100,0.00,,,0.12,Wunderground v.1.15,2013-07-14 13:30:00,
2013-07-14 09:40:00,83.0,83.0,29.95,East,96,2.0,2.0,100,0.00,,,0.12,Wunderground v.1.15,2013-07-14 13:40:00,
2013-07-14 09:50:00,83.0,83.0,29.95,East,97,3.0,3.0,100,0.00,,,0.12,Wunderground v.1.15,2013-07-14 13:50:00,
2013-07-14 10:00:00,83.0,83.0,29.95,ESE,109,3.0,3.0,100,0.00,,,0.12,Wunderground v.1.15,2013-07-14 14:00:00,
2013-07-14 10:10:00,83.0,83.0,29.95,SE,124,4.0,4.0,100,0.00,,,0.12,Wunderground v.1.15,2013-07-14 14:10:00,
2013-07-14 10:15:00,83.2,83.2,29.95,ESE,107,4.0,5.0,100,0.00,,,0.12,Wunderground v.1.15,2013-07-14 14:15:00,
2013-07-14 10:25:00,83.4,83.4,29.95,SE,128,2.0,3.0,100,0.00,,,0.12,Wunderground v.1.15,2013-07-14 14:25:00,
2013-07-14 10:30:00,83.6,83.6,29.96,ESE,107,2.0,5.0,100,0.00,,,0.12,Wunderground v.1.15,2013-07-14 14:30:00,
2013-07-14 10:40:00,83.6,83.6,29.96,ESE,116,3.0,4.0,100,0.00,,,0.12,Wunderground v.1.15,2013-07-14 14:40:00,
2013-07-14 10:45:00,83.6,83.6,29.96,ESE,116,5.0,5.0,100,0.00,,,0.12,Wunderground v.1.15,2013-07-14 14:45:00,
2013-07-14 10:55:00,83.8,83.8,29.96,ESE,107,4.0,6.0,100,0.00,,,0.12,Wunderground v.1.15,2013-07-14 14:55:00,
2013-07-14 11:05:00,83.6,83.6,29.96,ESE,109,5.0,5.0,100,0.00,,,0.12,Wunderground v.1.15,2013-07-14 15:05:00,
2013-07-14 11:10:00,83.6,83.6,29.96,ENE,72,4.0,4.0,100,0.00,,,0.12,Wunderground v.1.15,2013-07-14 15:10:00,
2013-07-14 11:20:00,83.6,83.6,29.96,ESE,109,2.0,2.0,100,0.00,,,0.12,Wunderground v.1.15,2013-07-14 15:20:00,
2013-07-14 11:25:00,83.6,83.6,29.96,ESE,117,3.0,3.0,100,0.00,,,0.12,Wunderground v.1.15,2013-07-14 15:25:00,
2013-07-14 11:35:00,83.6,83.6,29.96,ESE,114,3.0,7.0,100,0.00,,,0.12,Wunderground v.1.15,2013-07-14 15:35:00,
2013-07-14 11:45:00,83.6,83.6,29.96,ESE,114,3.0,3.0,100,0.00,,,0.12,Wunderground v.1.15,2013-07-14 15:45:00,
2013-07-14 11:55:00,83.4,83.4,29.96,ENE,69,4.0,4.0,100,0.00,,,0.12,Wunderground v.1.15,2013-07-14 15:55:00,
2013-07-14 12:05:00,83.4,83.4,29.96,ENE,65,4.0,8.0,100,0.00,,,0.12,Wunderground v.1.15,2013-07-14 16:05:00,
2013-07-14 12:15:00,83.4,83.4,29.97,ESE,114,4.0,7.0,100,0.00,,,0.12,Wunderground v.1.15,2013-07-14 16:15:00,
2013-07-14 12:25:00,83.4,83.4,29.97,East,89,4.0,4.0,100,0.00,,,0.12,Wunderground v.1.15,2013-07-14 16:25:00,
2013-07-14 12:35:00,83.6,83.6,29.97,ENE,78,3.0,5.0,100,0.00,,,0.12,Wunderground v.1.15,2013-07-14 16:35:00,
2013-07-14 12:40:00,83.4,83.4,29.97,ESE,106,3.0,3.0,100,0.00,,,0.12,Wunderground v.1.15,2013-07-14 16:40:00,
2013-07-14 12:50:00,83.6,83.6,29.97,East,83,3.0,5.0,100,0.00,,,0.12,Wunderground v.1.15,2013-07-14 16:50:00,
2013-07-14 12:55:00,83.6,83.6,29.97,ESE,102,3.0,5.0,100,0.00,,,0.12,Wunderground v.1.15,2013-07-14 16:55:00,
2013-07-14 13:05:00,83.6,83.6,29.97,ENE,73,3.0,7.0,100,0.00,,,0.12,Wunderground v.1.15,2013-07-14 17:05:00,
2013-07-14 13:10:00,83.6,83.6,29.97,ESE,110,4.0,6.0,100,0.00,,,0.12,Wunderground v.1.15,2013-07-14 17:10:00,
2013-07-14 13:20:00,83.6,83.6,29.97,East,79,4.0,4.0,100,0.00,,,0.12,Wunderground v.1.15,2013-07-14 17:20:00,
2013-07-14 13:30:00,83.4,83.4,29.97,East,89,4.0,4.0,100,0.00,,,0.12,Wunderground v.1.15,2013-07-14 17:30:00,
2013-07-14 13:35:00,83.4,83.4,29.97,ESE,109,3.0,4.0,100,0.00,,,0.12,Wunderground v.1.15,2013-07-14 17:35:00,
2013-07-14 13:45:00,83.2,83.2,29.97,ENE,73,4.0,5.0,100,0.00,,,0.12,Wunderground v.1.15,2013-07-14 17:45:00,
2013-07-14 13:50:00,83.4,83.4,29.97,SE,136,4.0,4.0,100,0.00,,,0.12,Wunderground v.1.15,2013-07-14 17:50:00,
2013-07-14 14:00:00,83.2,83.2,29.97,East,86,3.0,3.0,100,0.00,,,0.12,Wunderground v.1.15,2013-07-14 18:00:00,
2013-07-14 14:10:00,83.4,83.4,29.97,East,97,3.0,7.0,100,0.00,,,0.12,Wunderground v.1.15,2013-07-14 18:10:00,
2013-07-14 14:15:00,83.4,83.4,29.96,East,79,5.0,7.0,100,0.00,,,0.12,Wunderground v.1.15,2013-07-14 18:15:00,
2013-07-14 14:25:00,83.4,83.4,29.96,East,85,5.0,7.0,100,0.00,,,0.12,Wunderground v.1.15,2013-07-14 18:25:00,
2013-07-14 14:35:00,83.4,83.4,29.95,East,79,5.0,5.0,100,0.00,,,0.12,Wunderground v.1.15,2013-07-14 18:35:00,
2013-07-14 14:45:00,83.6,83.6,29.95,ENE,62,5.0,6.0,100,0.00,,,0.12,Wunderground v.1.15,2013-07-14 18:45:00,
2013-07-14 14:50:00,83.6,83.6,29.95,NE,49,6.0,7.0,100,0.00,,,0.12,Wunderground v.1.15,2013-07-14 18:50:00,
2013-07-14 15:00:00,83.8,83.8,29.94,East,100,7.0,7.0,100,0.00,,,0.12,Wunderground v.1.15,2013-07-14 19:00:00,
2013-07-14 15:05:00,84.0,84.0,29.94,ESE,109,6.0,7.0,100,0.00,,,0.12,Wunderground v.1.15,2013-07-14 19:05:00,
2013-07-14 15:15:00,83.8,83.8,29.94,ENE,76,4.0,10.0,100,0.00,,,0.12,Wunderground v.1.15,2013-07-14 19:15:00,
2013-07-14 15:20:00,84.0,-99.9,29.94,East,93,5.0,5.0,255,0.00,,,0.12,Wunderground v.1.15,2013-07-14 19:20:00,
2013-07-14 15:30:00,84.0,84.0,29.93,ENE,66,5.0,8.0,100,0.00,,,0.12,Wunderground v.1.15,2013-07-14 19:30:00,
2013-07-14 15:40:00,84.3,84.3,29.93,East,86,5.0,5.0,100,0.00,,,0.12,Wunderground v.1.15,2013-07-14 19:40:00,
2013-07-14 15:45:00,84.5,84.5,29.93,East,85,5.0,5.0,100,0.00,,,0.12,Wunderground v.1.15,2013-07-14 19:45:00,
2013-07-14 15:55:00,84.5,84.5,29.93,ESE,114,6.0,7.0,100,0.00,,,0.12,Wunderground v.1.15,2013-07-14 19:55:00,
2013-07-14 16:05:00,84.5,84.5,29.92,ESE,107,6.0,6.0,100,0.00,,,0.12,Wunderground v.1.15,2013-07-14 20:05:00,
2013-07-14 16:10:00,84.7,84.7,29.92,SE,128,6.0,6.0,100,0.00,,,0.12,Wunderground v.1.15,2013-07-14 20:10:00,
2013-07-14 16:20:00,84.5,84.5,29.92,ESE,106,7.0,7.0,100,0.00,,,0.12,Wunderground v.1.15,2013-07-14 20:20:00,
2013-07-14 16:25:00,84.5,84.5,29.92,SE,133,6.0,7.0,100,0.00,,,0.12,Wunderground v.1.15,2013-07-14 20:25:00,
2013-07-14 16:35:00,84.3,84.3,29.92,ENE,66,6.0,8.0,100,0.00,,,0.12,Wunderground v.1.15,2013-07-14 20:35:00,
2013-07-14 16:45:00,84.1,84.1,29.91,ENE,73,7.0,7.0,100,0.00,,,0.12,Wunderground v.1.15,2013-07-14 20:45:00,
2013-07-14 16:55:00,83.8,83.8,29.91,East,92,6.0,7.0,100,0.00,,,0.12,Wunderground v.1.15,2013-07-14 20:55:00,
2013-07-14 17:05:00,84.0,84.0,29.91,ENE,75,6.0,6.0,100,0.00,,,0.12,Wunderground v.1.15,2013-07-14 21:05:00,
2013-07-14 17:15:00,83.8,83.8,29.91,East,79,6.0,8.0,100,0.00,,,0.12,Wunderground v.1.15,2013-07-14 21:15:00,
2013-07-14 17:20:00,83.8,83.8,29.91,ESE,114,6.0,8.0,100,0.00,,,0.12,Wunderground v.1.15,2013-07-14 21:20:00,
2013-07-14 17:30:00,83.8,83.8,29.91,East,95,7.0,7.0,100,0.00,,,0.12,Wunderground v.1.15,2013-07-14 21:30:00,
2013-07-14 17:35:00,84.0,84.0,29.91,East,92,6.0,7.0,100,0.00,,,0.12,Wunderground v.1.15,2013-07-14 21:35:00,
2013-07-14 17:45:00,83.8,83.8,29.92,ESE,123,5.0,10.0,100,0.00,,,0.12,Wunderground v.1.15,2013-07-14 21:45:00,
2013-07-14 17:50:00,83.6,83.6,29.92,ESE,114,6.0,6.0,100,0.00,,,0.12,Wunderground v.1.15,2013-07-14 21:50:00,
2013-07-14 18:00:00,83.4,83.4,29.92,ENE,72,6.0,8.0,100,0.00,,,0.12,Wunderground v.1.15,2013-07-14 22:00:00,
2013-07-14 18:10:00,83.4,83.4,29.92,ESE,112,5.0,5.0,100,0.00,,,0.12,Wunderground v.1.15,2013-07-14 22:10:00,
2013-07-14 18:20:00,83.4,83.4,29.92,ENE,72,4.0,5.0,100,0.00,,,0.12,Wunderground v.1.15,2013-07-14 22:20:00,
2013-07-14 18:30:00,83.2,83.2,29.92,ENE,72,6.0,8.0,100,0.00,,,0.12,Wunderground v.1.15,2013-07-14 22:30:00,
2013-07-14 18:40:00,83.2,83.2,29.92,East,85,7.0,7.0,100,0.00,,,0.12,Wunderground v.1.15,2013-07-14 22:40:00,
2013-07-14 18:45:00,83.2,83.2,29.92,ENE,65,6.0,7.0,100,0.00,,,0.12,Wunderground v.1.15,2013-07-14 22:45:00,
2013-07-14 18:55:00,83.2,83.2,29.92,East,90,6.0,6.0,100,0.00,,,0.12,Wunderground v.1.15,2013-07-14 22:55:00,
2013-07-14 19:05:00,83.2,83.2,29.92,ESE,112,4.0,5.0,100,0.00,,,0.12,Wunderground v.1.15,2013-07-14 23:05:00,
2013-07-14 19:10:00,83.2,83.2,29.92,ESE,102,4.0,4.0,100,0.00,,,0.12,Wunderground v.1.15,2013-07-14 23:10:00,
2013-07-14 19:20:00,83.2,83.2,29.93,ESE,120,4.0,8.0,100,0.00,,,0.12,Wunderground v.1.15,2013-07-14 23:20:00,
2013-07-14 19:25:00,83.2,83.2,29.93,NE,37,5.0,10.0,100,0.00,,,0.12,Wunderground v.1.15,2013-07-14 23:25:00,
2013-07-14 19:35:00,83.2,83.2,29.93,ENE,64,6.0,6.0,100,0.00,,,0.12,Wunderground v.1.15,2013-07-14 23:35:00,
2013-07-14 19:45:00,83.2,83.2,29.94,East,93,4.0,4.0,100,0.00,,,0.12,Wunderground v.1.15,2013-07-14 23:45:00,
2013-07-14 19:50:00,83.2,83.2,29.94,East,88,4.0,6.0,100,0.00,,,0.12,Wunderground v.1.15,2013-07-14 23:50:00,
2013-07-14 20:00:00,83.2,83.2,29.94,ESE,112,7.0,7.0,100,0.00,,,0.12,Wunderground v.1.15,2013-07-15 00:00:00,
2013-07-14 20:05:00,83.2,83.2,29.94,East,80,8.0,8.0,100,0.00,,,0.12,Wunderground v.1.15,2013-07-15 00:05:00,
2013-07-14 20:15:00,83.2,83.2,29.95,NE,52,6.0,11.0,100,0.00,,,0.12,Wunderground v.1.15,2013-07-15 00:15:00,
2013-07-14 20:25:00,83.0,83.0,29.95,East,88,7.0,10.0,100,0.00,,,0.12,Wunderground v.1.15,2013-07-15 00:25:00,
2013-07-14 20:30:00,83.2,83.2,29.95,NE,37,8.0,8.0,100,0.00,,,0.12,Wunderground v.1.15,2013-07-15 00:30:00,
2013-07-14 20:40:00,83.0,83.0,29.95,ENE,75,7.0,7.0,100,0.00,,,0.12,Wunderground v.1.15,2013-07-15 00:40:00,
2013-07-14 20:45:00,83.0,83.0,29.95,ENE,58,7.0,7.0,100,0.00,,,0.12,Wunderground v.1.15,2013-07-15 00:45:00,
2013-07-14 20:55:00,83.0,83.0,29.95,ESE,109,6.0,10.0,100,0.00,,,0.12,Wunderground v.1.15,2013-07-15 00:55:00,
2013-07-14 21:00:00,83.0,83.0,29.95,East,88,6.0,7.0,100,0.00,,,0.12,Wunderground v.1.15,2013-07-15 01:00:00,
2013-07-14 21:10:00,83.0,83.0,29.95,East,79,6.0,6.0,100,0.00,,,0.12,Wunderground v.1.15,2013-07-15 01:10:00,
2013-07-14 21:15:00,83.0,83.0,29.95,NE,52,6.0,12.0,100,0.00,,,0.12,Wunderground v.1.15,2013-07-15 01:15:00,
2013-07-14 21:25:00,83.0,83.0,29.95,ENE,72,6.0,9.0,100,0.00,,,0.12,Wunderground v.1.15,2013-07-15 01:25:00,
2013-07-14 21:30:00,83.0,83.0,29.95,ENE,62,7.0,7.0,100,0.00,,,0.12,Wunderground v.1.15,2013-07-15 01:30:00,
2013-07-14 21:40:00,82.8,82.8,29.95,ENE,66,5.0,7.0,100,0.00,,,0.12,Wunderground v.1.15,2013-07-15 01:40:00,
2013-07-14 21:45:00,83.0,83.0,29.95,ENE,73,6.0,7.0,100,0.00,,,0.12,Wunderground v.1.15,2013-07-15 01:45:00,
2013-07-14 21:55:00,82.2,82.2,29.95,NE,42,4.0,5.0,100,0.00,,,0.12,Wunderground v.1.15,2013-07-15 01:55:00,
2013-07-14 22:05:00,80.7,80.7,29.95,NNE,21,4.0,6.0,100,0.00,,,0.12,Wunderground v.1.15,2013-07-15 02:05:00,
2013-07-14 22:15:00,77.7,77.7,29.96,NNE,21,9.0,18.0,100,0.00,,,0.15,Wunderground v.1.15,2013-07-15 02:15:00,
2013-07-14 22:25:00,76.5,76.5,29.96,ENE,76,10.0,11.0,100,0.74,,,0.41,Wunderground v.1.15,2013-07-15 02:25:00,
2013-07-14 22:35:00,77.7,77.7,29.97,ENE,64,5.0,7.0,100,0.20,,,0.45,Wunderground v.1.15,2013-07-15 02:35:00,
2013-07-14 22:45:00,77.7,77.7,29.97,NNE,13,1.0,7.0,100,0.06,,,0.46,Wunderground v.1.15,2013-07-15 02:45:00,
2013-07-14 22:50:00,77.6,77.6,29.97,NNE,27,2.0,5.0,100,0.06,,,0.46,Wunderground v.1.15,2013-07-15 02:50:00,
2013-07-14 23:00:00,77.6,77.6,29.97,North,8,2.0,6.0,100,0.07,,,0.48,Wunderground v.1.15,2013-07-15 03:00:00,
2013-07-14 23:05:00,77.6,77.6,29.97,North,11,3.0,6.0,100,0.07,,,0.48,Wunderground v.1.15,2013-07-15 03:05:00,
2013-07-14 23:15:00,76.3,76.3,29.98,North,0,6.0,14.0,100,0.04,,,0.48,Wunderground v.1.15,2013-07-15 03:15:00,
2013-07-14 23:20:00,75.8,75.8,29.98,NNE,16,8.0,13.0,100,0.00,,,0.48,Wunderground v.1.15,2013-07-15 03:20:00,
2013-07-14 23:30:00,75.8,75.8,29.98,North,8,9.0,13.0,100,0.00,,,0.48,Wunderground v.1.15,2013-07-15 03:30:00,
2013-07-14 23:35:00,75.6,75.6,29.98,NNE,27,7.0,13.0,100,0.00,,,0.48,Wunderground v.1.15,2013-07-15 03:35:00,
2013-07-14 23:45:00,76.1,76.1,29.98,NNE,17,6.0,7.0,100,0.00,,,0.48,Wunderground v.1.15,2013-07-15 03:45:00,
2013-07-14 23:50:00,76.3,76.3,29.98,NE,42,6.0,6.0,100,0.00,,,0.48,Wunderground v.1.15,2013-07-15 03:50:00,